sensor_id;sensor_type;location;lat;lon;timestamp;P1;durP1;ratioP1;P2;durP2;ratioP2
12306;SDS011;6216;51.146;7.008;2022-08-06T00:02:10;2.27;;;0.90;;
12306;SDS011;6216;51.146;7.008;2022-08-06T00:04:39;2.43;;;1.10;;
12306;SDS011;6216;51.146;7.008;2022-08-06T00:07:08;2.87;;;1.47;;
12306;SDS011;6216;51.146;7.008;2022-08-06T00:09:47;2.33;;;0.80;;
12306;SDS011;6216;51.146;7.008;2022-08-06T00:12:26;2.27;;;0.80;;
12306;SDS011;6216;51.146;7.008;2022-08-06T00:14:55;2.73;;;1.23;;
12306;SDS011;6216;51.146;7.008;2022-08-06T00:17:25;3.13;;;0.90;;
12306;SDS011;6216;51.146;7.008;2022-08-06T00:19:58;2.33;;;0.87;;
12306;SDS011;6216;51.146;7.008;2022-08-06T00:22:28;1.73;;;0.80;;
12306;SDS011;6216;51.146;7.008;2022-08-06T00:24:58;3.60;;;1.03;;
12306;SDS011;6216;51.146;7.008;2022-08-06T00:27:26;3.50;;;1.10;;
12306;SDS011;6216;51.146;7.008;2022-08-06T00:30:04;2.20;;;0.97;;
12306;SDS011;6216;51.146;7.008;2022-08-06T00:32:44;2.20;;;0.80;;
12306;SDS011;6216;51.146;7.008;2022-08-06T00:35:18;2.53;;;0.67;;
12306;SDS011;6216;51.146;7.008;2022-08-06T00:37:54;1.73;;;0.80;;
12306;SDS011;6216;51.146;7.008;2022-08-06T00:40:25;1.87;;;1.13;;
12306;SDS011;6216;51.146;7.008;2022-08-06T00:42:55;1.73;;;0.87;;
12306;SDS011;6216;51.146;7.008;2022-08-06T00:45:25;4.50;;;0.80;;
12306;SDS011;6216;51.146;7.008;2022-08-06T00:47:58;2.17;;;0.87;;
12306;SDS011;6216;51.146;7.008;2022-08-06T00:50:32;4.83;;;1.27;;
12306;SDS011;6216;51.146;7.008;2022-08-06T00:53:03;1.57;;;0.70;;
12306;SDS011;6216;51.146;7.008;2022-08-06T00:55:35;2.53;;;0.90;;
12306;SDS011;6216;51.146;7.008;2022-08-06T00:58:23;3.00;;;0.97;;
12306;SDS011;6216;51.146;7.008;2022-08-06T01:00:52;3.23;;;0.97;;
12306;SDS011;6216;51.146;7.008;2022-08-06T01:03:21;1.73;;;0.90;;
12306;SDS011;6216;51.146;7.008;2022-08-06T01:06:06;3.80;;;1.00;;
12306;SDS011;6216;51.146;7.008;2022-08-06T01:08:55;2.23;;;0.97;;
12306;SDS011;6216;51.146;7.008;2022-08-06T01:11:23;2.97;;;1.23;;
12306;SDS011;6216;51.146;7.008;2022-08-06T01:13:52;1.87;;;1.30;;
12306;SDS011;6216;51.146;7.008;2022-08-06T01:16:34;2.03;;;0.80;;
12306;SDS011;6216;51.146;7.008;2022-08-06T01:22:37;2.10;;;1.20;;
12306;SDS011;6216;51.146;7.008;2022-08-06T01:25:45;2.63;;;1.07;;
12306;SDS011;6216;51.146;7.008;2022-08-06T01:28:36;2.90;;;0.97;;
12306;SDS011;6216;51.146;7.008;2022-08-06T01:31:12;2.10;;;1.10;;
12306;SDS011;6216;51.146;7.008;2022-08-06T01:33:46;6.20;;;1.20;;
12306;SDS011;6216;51.146;7.008;2022-08-06T01:36:20;3.63;;;1.30;;
12306;SDS011;6216;51.146;7.008;2022-08-06T01:38:55;1.90;;;1.00;;
12306;SDS011;6216;51.146;7.008;2022-08-06T01:41:29;2.20;;;1.10;;
12306;SDS011;6216;51.146;7.008;2022-08-06T01:44:27;0.83;;;0.80;;
12306;SDS011;6216;51.146;7.008;2022-08-06T01:47:00;1.00;;;0.90;;
12306;SDS011;6216;51.146;7.008;2022-08-06T01:49:43;3.30;;;1.27;;
12306;SDS011;6216;51.146;7.008;2022-08-06T01:52:28;2.97;;;1.07;;
12306;SDS011;6216;51.146;7.008;2022-08-06T01:55:02;2.47;;;1.17;;
12306;SDS011;6216;51.146;7.008;2022-08-06T01:57:38;2.03;;;1.00;;
12306;SDS011;6216;51.146;7.008;2022-08-06T02:00:29;2.27;;;1.10;;
12306;SDS011;6216;51.146;7.008;2022-08-06T02:02:59;1.80;;;1.13;;
12306;SDS011;6216;51.146;7.008;2022-08-06T02:05:33;1.50;;;1.10;;
12306;SDS011;6216;51.146;7.008;2022-08-06T02:08:19;4.17;;;1.30;;
12306;SDS011;6216;51.146;7.008;2022-08-06T02:11:06;2.27;;;1.17;;
12306;SDS011;6216;51.146;7.008;2022-08-06T02:13:56;2.77;;;1.10;;
12306;SDS011;6216;51.146;7.008;2022-08-06T02:16:27;3.83;;;1.20;;
12306;SDS011;6216;51.146;7.008;2022-08-06T02:18:58;3.07;;;1.27;;
12306;SDS011;6216;51.146;7.008;2022-08-06T02:21:38;2.37;;;1.17;;
12306;SDS011;6216;51.146;7.008;2022-08-06T02:24:15;2.30;;;1.10;;
12306;SDS011;6216;51.146;7.008;2022-08-06T02:26:45;2.93;;;1.53;;
12306;SDS011;6216;51.146;7.008;2022-08-06T02:29:16;3.30;;;1.50;;
12306;SDS011;6216;51.146;7.008;2022-08-06T02:31:52;2.43;;;1.50;;
12306;SDS011;6216;51.146;7.008;2022-08-06T02:34:27;3.17;;;1.60;;
12306;SDS011;6216;51.146;7.008;2022-08-06T02:36:57;4.53;;;1.87;;
12306;SDS011;6216;51.146;7.008;2022-08-06T02:39:32;2.20;;;1.47;;
12306;SDS011;6216;51.146;7.008;2022-08-06T02:42:18;2.20;;;1.30;;
12306;SDS011;6216;51.146;7.008;2022-08-06T02:44:58;2.97;;;1.40;;
12306;SDS011;6216;51.146;7.008;2022-08-06T02:47:33;2.23;;;1.57;;
12306;SDS011;6216;51.146;7.008;2022-08-06T02:50:27;8.03;;;1.90;;
12306;SDS011;6216;51.146;7.008;2022-08-06T02:53:03;4.03;;;2.20;;
12306;SDS011;6216;51.146;7.008;2022-08-06T02:55:51;6.33;;;2.20;;
12306;SDS011;6216;51.146;7.008;2022-08-06T02:58:23;4.77;;;1.80;;
12306;SDS011;6216;51.146;7.008;2022-08-06T03:01:05;7.47;;;1.90;;
12306;SDS011;6216;51.146;7.008;2022-08-06T03:03:37;2.20;;;1.77;;
12306;SDS011;6216;51.146;7.008;2022-08-06T03:06:25;3.80;;;1.73;;
12306;SDS011;6216;51.146;7.008;2022-08-06T03:08:58;3.40;;;1.90;;
12306;SDS011;6216;51.146;7.008;2022-08-06T03:11:29;3.00;;;2.13;;
12306;SDS011;6216;51.146;7.008;2022-08-06T03:14:03;3.77;;;1.80;;
12306;SDS011;6216;51.146;7.008;2022-08-06T03:16:54;4.13;;;2.00;;
12306;SDS011;6216;51.146;7.008;2022-08-06T03:19:25;4.90;;;1.83;;
12306;SDS011;6216;51.146;7.008;2022-08-06T03:22:14;3.70;;;2.07;;
12306;SDS011;6216;51.146;7.008;2022-08-06T03:25:04;6.70;;;2.20;;
12306;SDS011;6216;51.146;7.008;2022-08-06T03:27:36;4.73;;;1.90;;
12306;SDS011;6216;51.146;7.008;2022-08-06T03:30:10;2.83;;;2.00;;
12306;SDS011;6216;51.146;7.008;2022-08-06T03:32:57;3.00;;;1.77;;
12306;SDS011;6216;51.146;7.008;2022-08-06T03:35:49;3.13;;;1.70;;
12306;SDS011;6216;51.146;7.008;2022-08-06T03:38:20;4.20;;;2.10;;
12306;SDS011;6216;51.146;7.008;2022-08-06T03:40:54;6.00;;;2.17;;
12306;SDS011;6216;51.146;7.008;2022-08-06T03:43:23;5.90;;;2.33;;
12306;SDS011;6216;51.146;7.008;2022-08-06T03:45:56;6.33;;;2.33;;
12306;SDS011;6216;51.146;7.008;2022-08-06T03:48:28;4.63;;;2.20;;
12306;SDS011;6216;51.146;7.008;2022-08-06T03:51:05;6.60;;;2.17;;
12306;SDS011;6216;51.146;7.008;2022-08-06T03:53:38;5.07;;;1.73;;
12306;SDS011;6216;51.146;7.008;2022-08-06T03:56:15;6.10;;;2.03;;
12306;SDS011;6216;51.146;7.008;2022-08-06T03:58:56;3.10;;;1.50;;
12306;SDS011;6216;51.146;7.008;2022-08-06T04:01:31;3.37;;;1.70;;
12306;SDS011;6216;51.146;7.008;2022-08-06T04:04:15;2.60;;;1.50;;
12306;SDS011;6216;51.146;7.008;2022-08-06T04:06:54;3.17;;;1.67;;
12306;SDS011;6216;51.146;7.008;2022-08-06T04:09:24;4.90;;;1.80;;
12306;SDS011;6216;51.146;7.008;2022-08-06T04:12:13;4.33;;;1.50;;
12306;SDS011;6216;51.146;7.008;2022-08-06T04:15:01;5.60;;;1.63;;
12306;SDS011;6216;51.146;7.008;2022-08-06T04:17:34;3.27;;;1.47;;
12306;SDS011;6216;51.146;7.008;2022-08-06T04:20:06;3.90;;;1.60;;
12306;SDS011;6216;51.146;7.008;2022-08-06T04:22:36;1.47;;;1.17;;
12306;SDS011;6216;51.146;7.008;2022-08-06T04:25:25;2.60;;;1.23;;
12306;SDS011;6216;51.146;7.008;2022-08-06T04:28:02;5.30;;;1.43;;
12306;SDS011;6216;51.146;7.008;2022-08-06T04:30:34;3.57;;;1.47;;
12306;SDS011;6216;51.146;7.008;2022-08-06T04:33:13;5.20;;;1.70;;
12306;SDS011;6216;51.146;7.008;2022-08-06T04:35:45;4.00;;;1.63;;
12306;SDS011;6216;51.146;7.008;2022-08-06T04:38:34;4.07;;;1.20;;
12306;SDS011;6216;51.146;7.008;2022-08-06T04:41:05;3.60;;;1.20;;
12306;SDS011;6216;51.146;7.008;2022-08-06T04:43:41;1.53;;;1.40;;
12306;SDS011;6216;51.146;7.008;2022-08-06T04:46:18;1.80;;;1.40;;
12306;SDS011;6216;51.146;7.008;2022-08-06T04:48:49;2.30;;;1.40;;
12306;SDS011;6216;51.146;7.008;2022-08-06T04:51:25;3.00;;;1.47;;
12306;SDS011;6216;51.146;7.008;2022-08-06T04:54:15;3.00;;;1.43;;
12306;SDS011;6216;51.146;7.008;2022-08-06T04:56:47;3.20;;;1.30;;
12306;SDS011;6216;51.146;7.008;2022-08-06T04:59:15;3.27;;;1.53;;
12306;SDS011;6216;51.146;7.008;2022-08-06T05:01:44;3.90;;;1.50;;
12306;SDS011;6216;51.146;7.008;2022-08-06T05:04:25;4.53;;;1.47;;
12306;SDS011;6216;51.146;7.008;2022-08-06T05:06:55;4.90;;;1.50;;
12306;SDS011;6216;51.146;7.008;2022-08-06T05:09:31;4.57;;;1.73;;
12306;SDS011;6216;51.146;7.008;2022-08-06T05:12:12;8.47;;;1.77;;
12306;SDS011;6216;51.146;7.008;2022-08-06T05:14:52;5.47;;;2.07;;
12306;SDS011;6216;51.146;7.008;2022-08-06T05:17:26;5.17;;;1.83;;
12306;SDS011;6216;51.146;7.008;2022-08-06T05:20:02;7.73;;;2.20;;
12306;SDS011;6216;51.146;7.008;2022-08-06T05:22:51;3.87;;;1.73;;
12306;SDS011;6216;51.146;7.008;2022-08-06T05:25:29;6.07;;;1.87;;
12306;SDS011;6216;51.146;7.008;2022-08-06T05:28:01;9.50;;;1.90;;
12306;SDS011;6216;51.146;7.008;2022-08-06T05:30:41;3.73;;;1.77;;
12306;SDS011;6216;51.146;7.008;2022-08-06T05:33:10;7.17;;;1.80;;
12306;SDS011;6216;51.146;7.008;2022-08-06T05:35:42;2.73;;;1.17;;
12306;SDS011;6216;51.146;7.008;2022-08-06T05:38:28;6.27;;;1.87;;
12306;SDS011;6216;51.146;7.008;2022-08-06T05:41:03;3.97;;;1.70;;
12306;SDS011;6216;51.146;7.008;2022-08-06T05:43:33;4.73;;;2.00;;
12306;SDS011;6216;51.146;7.008;2022-08-06T05:46:22;8.97;;;2.03;;
12306;SDS011;6216;51.146;7.008;2022-08-06T05:48:54;24.17;;;5.83;;
12306;SDS011;6216;51.146;7.008;2022-08-06T05:51:38;11.33;;;3.33;;
12306;SDS011;6216;51.146;7.008;2022-08-06T05:54:17;7.13;;;2.10;;
12306;SDS011;6216;51.146;7.008;2022-08-06T05:56:55;5.50;;;1.70;;
12306;SDS011;6216;51.146;7.008;2022-08-06T05:59:30;4.27;;;2.20;;
12306;SDS011;6216;51.146;7.008;2022-08-06T06:02:22;3.90;;;1.57;;
12306;SDS011;6216;51.146;7.008;2022-08-06T06:04:53;3.83;;;1.90;;
12306;SDS011;6216;51.146;7.008;2022-08-06T06:07:41;5.70;;;1.77;;
12306;SDS011;6216;51.146;7.008;2022-08-06T06:10:30;3.10;;;1.37;;
12306;SDS011;6216;51.146;7.008;2022-08-06T06:13:01;6.03;;;1.80;;
12306;SDS011;6216;51.146;7.008;2022-08-06T06:15:51;3.37;;;1.77;;
12306;SDS011;6216;51.146;7.008;2022-08-06T06:18:33;5.50;;;1.63;;
12306;SDS011;6216;51.146;7.008;2022-08-06T06:21:19;5.77;;;2.03;;
12306;SDS011;6216;51.146;7.008;2022-08-06T06:24:00;6.73;;;1.13;;
12306;SDS011;6216;51.146;7.008;2022-08-06T06:26:35;4.60;;;1.70;;
12306;SDS011;6216;51.146;7.008;2022-08-06T06:29:15;3.67;;;1.70;;
12306;SDS011;6216;51.146;7.008;2022-08-06T06:32:13;4.83;;;1.87;;
12306;SDS011;6216;51.146;7.008;2022-08-06T06:34:57;7.43;;;1.50;;
12306;SDS011;6216;51.146;7.008;2022-08-06T06:37:34;7.63;;;1.33;;
12306;SDS011;6216;51.146;7.008;2022-08-06T06:40:17;3.80;;;1.67;;
12306;SDS011;6216;51.146;7.008;2022-08-06T06:42:56;8.00;;;1.53;;
12306;SDS011;6216;51.146;7.008;2022-08-06T06:45:32;4.63;;;1.33;;
12306;SDS011;6216;51.146;7.008;2022-08-06T06:48:34;4.20;;;1.23;;
12306;SDS011;6216;51.146;7.008;2022-08-06T06:51:08;4.60;;;1.50;;
12306;SDS011;6216;51.146;7.008;2022-08-06T06:54:00;4.60;;;1.57;;
12306;SDS011;6216;51.146;7.008;2022-08-06T06:56:36;5.43;;;1.67;;
12306;SDS011;6216;51.146;7.008;2022-08-06T06:59:11;3.20;;;1.53;;
12306;SDS011;6216;51.146;7.008;2022-08-06T07:01:45;4.70;;;1.20;;
12306;SDS011;6216;51.146;7.008;2022-08-06T07:04:20;3.50;;;1.43;;
12306;SDS011;6216;51.146;7.008;2022-08-06T07:06:52;3.73;;;1.30;;
12306;SDS011;6216;51.146;7.008;2022-08-06T07:09:25;4.77;;;1.10;;
12306;SDS011;6216;51.146;7.008;2022-08-06T07:12:09;5.13;;;1.40;;
12306;SDS011;6216;51.146;7.008;2022-08-06T07:14:50;2.63;;;1.10;;
12306;SDS011;6216;51.146;7.008;2022-08-06T07:17:28;3.87;;;1.20;;
12306;SDS011;6216;51.146;7.008;2022-08-06T07:20:14;2.60;;;0.97;;
12306;SDS011;6216;51.146;7.008;2022-08-06T07:22:54;2.47;;;0.70;;
12306;SDS011;6216;51.146;7.008;2022-08-06T07:25:46;3.00;;;1.23;;
12306;SDS011;6216;51.146;7.008;2022-08-06T07:28:21;2.27;;;1.10;;
12306;SDS011;6216;51.146;7.008;2022-08-06T07:30:54;2.63;;;1.10;;
12306;SDS011;6216;51.146;7.008;2022-08-06T07:33:34;4.20;;;0.97;;
12306;SDS011;6216;51.146;7.008;2022-08-06T07:36:23;3.13;;;1.20;;
12306;SDS011;6216;51.146;7.008;2022-08-06T07:38:54;3.27;;;1.00;;
12306;SDS011;6216;51.146;7.008;2022-08-06T07:41:26;2.33;;;1.20;;
12306;SDS011;6216;51.146;7.008;2022-08-06T07:44:14;2.77;;;0.93;;
12306;SDS011;6216;51.146;7.008;2022-08-06T07:46:47;2.20;;;0.90;;
12306;SDS011;6216;51.146;7.008;2022-08-06T07:49:23;2.23;;;0.90;;
12306;SDS011;6216;51.146;7.008;2022-08-06T07:52:15;3.43;;;0.90;;
12306;SDS011;6216;51.146;7.008;2022-08-06T07:54:52;7.03;;;1.07;;
12306;SDS011;6216;51.146;7.008;2022-08-06T07:57:22;3.87;;;0.60;;
12306;SDS011;6216;51.146;7.008;2022-08-06T07:59:57;1.93;;;0.63;;
12306;SDS011;6216;51.146;7.008;2022-08-06T08:02:26;2.87;;;0.90;;
12306;SDS011;6216;51.146;7.008;2022-08-06T08:04:57;1.67;;;0.80;;
12306;SDS011;6216;51.146;7.008;2022-08-06T08:07:51;1.77;;;0.70;;
12306;SDS011;6216;51.146;7.008;2022-08-06T08:10:23;1.97;;;0.80;;
12306;SDS011;6216;51.146;7.008;2022-08-06T08:12:54;2.63;;;0.80;;
12306;SDS011;6216;51.146;7.008;2022-08-06T08:15:29;1.27;;;0.67;;
12306;SDS011;6216;51.146;7.008;2022-08-06T08:18:08;2.03;;;0.60;;
12306;SDS011;6216;51.146;7.008;2022-08-06T08:20:39;1.90;;;0.70;;
12306;SDS011;6216;51.146;7.008;2022-08-06T08:23:19;1.03;;;0.70;;
12306;SDS011;6216;51.146;7.008;2022-08-06T08:26:02;4.90;;;0.73;;
12306;SDS011;6216;51.146;7.008;2022-08-06T08:28:30;2.20;;;0.63;;
12306;SDS011;6216;51.146;7.008;2022-08-06T08:30:58;4.40;;;1.00;;
12306;SDS011;6216;51.146;7.008;2022-08-06T08:33:45;1.63;;;0.60;;
12306;SDS011;6216;51.146;7.008;2022-08-06T08:36:15;2.50;;;1.00;;
12306;SDS011;6216;51.146;7.008;2022-08-06T08:38:43;2.10;;;0.70;;
12306;SDS011;6216;51.146;7.008;2022-08-06T08:41:19;4.83;;;0.40;;
12306;SDS011;6216;51.146;7.008;2022-08-06T08:44:12;1.30;;;0.40;;
12306;SDS011;6216;51.146;7.008;2022-08-06T08:46:51;1.93;;;0.60;;
12306;SDS011;6216;51.146;7.008;2022-08-06T08:49:25;1.90;;;0.47;;
12306;SDS011;6216;51.146;7.008;2022-08-06T08:51:58;0.77;;;0.43;;
12306;SDS011;6216;51.146;7.008;2022-08-06T08:54:36;3.60;;;0.43;;
12306;SDS011;6216;51.146;7.008;2022-08-06T08:57:08;1.23;;;0.40;;
12306;SDS011;6216;51.146;7.008;2022-08-06T09:00:01;1.43;;;0.40;;
12306;SDS011;6216;51.146;7.008;2022-08-06T09:02:36;1.67;;;0.77;;
12306;SDS011;6216;51.146;7.008;2022-08-06T09:05:15;2.23;;;0.60;;
12306;SDS011;6216;51.146;7.008;2022-08-06T09:07:45;0.80;;;0.50;;
12306;SDS011;6216;51.146;7.008;2022-08-06T09:10:30;2.37;;;0.40;;
12306;SDS011;6216;51.146;7.008;2022-08-06T09:12:58;1.63;;;0.67;;
12306;SDS011;6216;51.146;7.008;2022-08-06T09:15:26;1.70;;;0.57;;
12306;SDS011;6216;51.146;7.008;2022-08-06T09:18:05;4.20;;;1.30;;
12306;SDS011;6216;51.146;7.008;2022-08-06T09:20:52;3.37;;;0.90;;
12306;SDS011;6216;51.146;7.008;2022-08-06T09:23:24;3.20;;;1.00;;
12306;SDS011;6216;51.146;7.008;2022-08-06T09:26:03;2.40;;;0.67;;
12306;SDS011;6216;51.146;7.008;2022-08-06T09:28:33;3.73;;;0.90;;
12306;SDS011;6216;51.146;7.008;2022-08-06T09:31:05;1.90;;;0.63;;
12306;SDS011;6216;51.146;7.008;2022-08-06T09:33:54;3.83;;;0.70;;
12306;SDS011;6216;51.146;7.008;2022-08-06T09:36:44;1.97;;;1.00;;
12306;SDS011;6216;51.146;7.008;2022-08-06T09:39:15;2.17;;;0.70;;
12306;SDS011;6216;51.146;7.008;2022-08-06T09:41:49;1.53;;;0.60;;
12306;SDS011;6216;51.146;7.008;2022-08-06T09:44:19;3.40;;;0.60;;
12306;SDS011;6216;51.146;7.008;2022-08-06T09:47:03;3.93;;;1.00;;
12306;SDS011;6216;51.146;7.008;2022-08-06T09:49:44;1.87;;;0.50;;
12306;SDS011;6216;51.146;7.008;2022-08-06T09:52:26;1.90;;;0.40;;
12306;SDS011;6216;51.146;7.008;2022-08-06T09:54:55;1.27;;;0.50;;
12306;SDS011;6216;51.146;7.008;2022-08-06T09:57:27;2.63;;;0.40;;
12306;SDS011;6216;51.146;7.008;2022-08-06T10:00:08;1.73;;;0.50;;
12306;SDS011;6216;51.146;7.008;2022-08-06T10:02:40;1.30;;;0.37;;
12306;SDS011;6216;51.146;7.008;2022-08-06T10:05:17;2.37;;;0.50;;
12306;SDS011;6216;51.146;7.008;2022-08-06T10:07:46;1.73;;;0.63;;
12306;SDS011;6216;51.146;7.008;2022-08-06T10:10:20;1.03;;;0.50;;
12306;SDS011;6216;51.146;7.008;2022-08-06T10:13:11;1.40;;;0.60;;
12306;SDS011;6216;51.146;7.008;2022-08-06T10:15:45;1.57;;;0.60;;
12306;SDS011;6216;51.146;7.008;2022-08-06T10:18:29;1.77;;;0.80;;
12306;SDS011;6216;51.146;7.008;2022-08-06T10:21:19;0.63;;;0.37;;
12306;SDS011;6216;51.146;7.008;2022-08-06T10:23:54;2.33;;;0.83;;
12306;SDS011;6216;51.146;7.008;2022-08-06T10:26:32;1.10;;;0.60;;
12306;SDS011;6216;51.146;7.008;2022-08-06T10:29:02;2.23;;;0.67;;
12306;SDS011;6216;51.146;7.008;2022-08-06T10:31:32;1.13;;;0.53;;
12306;SDS011;6216;51.146;7.008;2022-08-06T10:34:05;1.63;;;0.50;;
12306;SDS011;6216;51.146;7.008;2022-08-06T10:36:36;0.30;;;0.30;;
12306;SDS011;6216;51.146;7.008;2022-08-06T10:39:07;1.57;;;0.63;;
12306;SDS011;6216;51.146;7.008;2022-08-06T10:41:56;1.30;;;0.50;;
12306;SDS011;6216;51.146;7.008;2022-08-06T10:44:41;4.00;;;1.07;;
12306;SDS011;6216;51.146;7.008;2022-08-06T10:47:12;1.43;;;0.63;;
12306;SDS011;6216;51.146;7.008;2022-08-06T10:50:00;1.53;;;0.83;;
12306;SDS011;6216;51.146;7.008;2022-08-06T10:52:49;2.17;;;0.73;;
12306;SDS011;6216;51.146;7.008;2022-08-06T10:55:19;1.33;;;0.60;;
12306;SDS011;6216;51.146;7.008;2022-08-06T10:57:50;0.93;;;0.50;;
12306;SDS011;6216;51.146;7.008;2022-08-06T11:00:18;1.57;;;0.60;;
12306;SDS011;6216;51.146;7.008;2022-08-06T11:02:49;0.97;;;0.50;;
12306;SDS011;6216;51.146;7.008;2022-08-06T11:05:25;0.73;;;0.40;;
12306;SDS011;6216;51.146;7.008;2022-08-06T11:08:22;1.10;;;0.53;;
12306;SDS011;6216;51.146;7.008;2022-08-06T11:11:24;1.13;;;0.60;;
12306;SDS011;6216;51.146;7.008;2022-08-06T11:14:30;0.67;;;0.37;;
12306;SDS011;6216;51.146;7.008;2022-08-06T11:17:03;0.90;;;0.50;;
12306;SDS011;6216;51.146;7.008;2022-08-06T11:19:37;1.77;;;0.67;;
12306;SDS011;6216;51.146;7.008;2022-08-06T11:22:32;0.80;;;0.60;;
12306;SDS011;6216;51.146;7.008;2022-08-06T11:25:02;1.17;;;0.30;;
12306;SDS011;6216;51.146;7.008;2022-08-06T11:27:52;1.87;;;0.50;;
12306;SDS011;6216;51.146;7.008;2022-08-06T11:30:38;1.13;;;0.50;;
12306;SDS011;6216;51.146;7.008;2022-08-06T11:33:13;3.73;;;0.80;;
12306;SDS011;6216;51.146;7.008;2022-08-06T11:35:43;0.90;;;0.50;;
12306;SDS011;6216;51.146;7.008;2022-08-06T11:41:44;0.80;;;0.70;;
12306;SDS011;6216;51.146;7.008;2022-08-06T11:44:23;2.20;;;0.60;;
12306;SDS011;6216;51.146;7.008;2022-08-06T11:47:09;2.30;;;0.50;;
12306;SDS011;6216;51.146;7.008;2022-08-06T11:49:39;2.73;;;0.37;;
12306;SDS011;6216;51.146;7.008;2022-08-06T11:55:11;1.40;;;0.40;;
12306;SDS011;6216;51.146;7.008;2022-08-06T11:57:50;3.97;;;0.50;;
12306;SDS011;6216;51.146;7.008;2022-08-06T12:01:21;0.50;;;0.20;;
12306;SDS011;6216;51.146;7.008;2022-08-06T12:07:17;0.93;;;0.40;;
12306;SDS011;6216;51.146;7.008;2022-08-06T12:09:59;1.77;;;0.50;;
12306;SDS011;6216;51.146;7.008;2022-08-06T12:12:33;1.00;;;0.40;;
12306;SDS011;6216;51.146;7.008;2022-08-06T12:15:04;0.60;;;0.40;;
12306;SDS011;6216;51.146;7.008;2022-08-06T12:18:24;0.73;;;0.50;;
12306;SDS011;6216;51.146;7.008;2022-08-06T12:20:57;3.30;;;0.53;;
12306;SDS011;6216;51.146;7.008;2022-08-06T12:23:26;1.47;;;0.57;;
12306;SDS011;6216;51.146;7.008;2022-08-06T12:26:15;0.73;;;0.40;;
12306;SDS011;6216;51.146;7.008;2022-08-06T12:29:04;1.10;;;0.50;;
12306;SDS011;6216;51.146;7.008;2022-08-06T12:31:34;1.40;;;0.70;;
12306;SDS011;6216;51.146;7.008;2022-08-06T12:34:22;2.57;;;0.50;;
12306;SDS011;6216;51.146;7.008;2022-08-06T12:36:54;0.60;;;0.33;;
12306;SDS011;6216;51.146;7.008;2022-08-06T12:39:25;1.07;;;0.47;;
12306;SDS011;6216;51.146;7.008;2022-08-06T12:42:21;0.90;;;0.57;;
12306;SDS011;6216;51.146;7.008;2022-08-06T12:45:10;0.73;;;0.53;;
12306;SDS011;6216;51.146;7.008;2022-08-06T12:47:58;1.10;;;0.60;;
12306;SDS011;6216;51.146;7.008;2022-08-06T12:50:30;1.73;;;0.50;;
12306;SDS011;6216;51.146;7.008;2022-08-06T12:53:05;0.73;;;0.50;;
12306;SDS011;6216;51.146;7.008;2022-08-06T12:55:40;0.97;;;0.50;;
12306;SDS011;6216;51.146;7.008;2022-08-06T12:58:11;0.60;;;0.20;;
12306;SDS011;6216;51.146;7.008;2022-08-06T13:01:01;0.43;;;0.30;;
12306;SDS011;6216;51.146;7.008;2022-08-06T13:03:32;0.67;;;0.37;;
12306;SDS011;6216;51.146;7.008;2022-08-06T13:06:06;1.27;;;0.50;;
12306;SDS011;6216;51.146;7.008;2022-08-06T13:08:57;1.70;;;0.50;;
12306;SDS011;6216;51.146;7.008;2022-08-06T13:11:29;1.17;;;0.47;;
12306;SDS011;6216;51.146;7.008;2022-08-06T13:14:09;1.20;;;0.50;;
12306;SDS011;6216;51.146;7.008;2022-08-06T13:16:44;1.17;;;0.50;;
12306;SDS011;6216;51.146;7.008;2022-08-06T13:19:22;0.50;;;0.30;;
12306;SDS011;6216;51.146;7.008;2022-08-06T13:22:04;0.93;;;0.30;;
12306;SDS011;6216;51.146;7.008;2022-08-06T13:24:37;0.70;;;0.50;;
12306;SDS011;6216;51.146;7.008;2022-08-06T13:27:31;1.57;;;0.40;;
12306;SDS011;6216;51.146;7.008;2022-08-06T13:30:00;0.87;;;0.43;;
12306;SDS011;6216;51.146;7.008;2022-08-06T13:32:49;0.83;;;0.40;;
12306;SDS011;6216;51.146;7.008;2022-08-06T13:35:24;0.40;;;0.40;;
12306;SDS011;6216;51.146;7.008;2022-08-06T13:37:57;0.80;;;0.40;;
12306;SDS011;6216;51.146;7.008;2022-08-06T13:40:44;0.97;;;0.40;;
12306;SDS011;6216;51.146;7.008;2022-08-06T13:43:34;1.33;;;0.70;;
12306;SDS011;6216;51.146;7.008;2022-08-06T13:46:20;0.50;;;0.50;;
12306;SDS011;6216;51.146;7.008;2022-08-06T13:48:54;1.27;;;0.97;;
12306;SDS011;6216;51.146;7.008;2022-08-06T13:51:27;0.50;;;0.40;;
12306;SDS011;6216;51.146;7.008;2022-08-06T13:54:01;0.47;;;0.30;;
12306;SDS011;6216;51.146;7.008;2022-08-06T13:56:46;1.23;;;0.57;;
12306;SDS011;6216;51.146;7.008;2022-08-06T13:59:18;1.23;;;0.40;;
12306;SDS011;6216;51.146;7.008;2022-08-06T14:02:07;1.27;;;0.60;;
12306;SDS011;6216;51.146;7.008;2022-08-06T14:04:37;1.73;;;0.43;;
12306;SDS011;6216;51.146;7.008;2022-08-06T14:07:15;0.37;;;0.37;;
12306;SDS011;6216;51.146;7.008;2022-08-06T14:09:44;1.30;;;0.60;;
12306;SDS011;6216;51.146;7.008;2022-08-06T14:12:33;1.97;;;0.33;;
12306;SDS011;6216;51.146;7.008;2022-08-06T14:15:04;0.87;;;0.40;;
12306;SDS011;6216;51.146;7.008;2022-08-06T14:17:38;0.63;;;0.57;;
12306;SDS011;6216;51.146;7.008;2022-08-06T14:20:10;0.40;;;0.40;;
12306;SDS011;6216;51.146;7.008;2022-08-06T14:22:50;1.53;;;0.60;;
12306;SDS011;6216;51.146;7.008;2022-08-06T14:25:18;1.10;;;0.73;;
12306;SDS011;6216;51.146;7.008;2022-08-06T14:27:50;0.43;;;0.43;;
12306;SDS011;6216;51.146;7.008;2022-08-06T14:30:19;1.90;;;0.70;;
12306;SDS011;6216;51.146;7.008;2022-08-06T14:32:58;1.60;;;0.40;;
12306;SDS011;6216;51.146;7.008;2022-08-06T14:35:36;0.63;;;0.30;;
12306;SDS011;6216;51.146;7.008;2022-08-06T14:38:16;1.10;;;0.70;;
12306;SDS011;6216;51.146;7.008;2022-08-06T14:40:45;1.43;;;0.37;;
12306;SDS011;6216;51.146;7.008;2022-08-06T14:43:36;0.70;;;0.40;;
12306;SDS011;6216;51.146;7.008;2022-08-06T14:46:24;1.43;;;0.50;;
12306;SDS011;6216;51.146;7.008;2022-08-06T14:48:56;1.83;;;0.47;;
12306;SDS011;6216;51.146;7.008;2022-08-06T14:51:26;0.43;;;0.40;;
12306;SDS011;6216;51.146;7.008;2022-08-06T14:54:14;0.73;;;0.50;;
12306;SDS011;6216;51.146;7.008;2022-08-06T14:56:43;1.03;;;0.63;;
12306;SDS011;6216;51.146;7.008;2022-08-06T14:59:19;0.30;;;0.30;;
12306;SDS011;6216;51.146;7.008;2022-08-06T15:01:48;1.07;;;0.50;;
12306;SDS011;6216;51.146;7.008;2022-08-06T15:04:16;0.20;;;0.20;;
12306;SDS011;6216;51.146;7.008;2022-08-06T15:06:49;1.40;;;0.50;;
12306;SDS011;6216;51.146;7.008;2022-08-06T15:09:24;0.40;;;0.30;;
12306;SDS011;6216;51.146;7.008;2022-08-06T15:12:13;0.83;;;0.50;;
12306;SDS011;6216;51.146;7.008;2022-08-06T15:15:02;0.50;;;0.50;;
12306;SDS011;6216;51.146;7.008;2022-08-06T15:17:34;0.87;;;0.40;;
12306;SDS011;6216;51.146;7.008;2022-08-06T15:20:23;0.93;;;0.27;;
12306;SDS011;6216;51.146;7.008;2022-08-06T15:22:52;0.50;;;0.20;;
12306;SDS011;6216;51.146;7.008;2022-08-06T15:25:21;1.07;;;0.43;;
12306;SDS011;6216;51.146;7.008;2022-08-06T15:28:09;0.97;;;0.40;;
12306;SDS011;6216;51.146;7.008;2022-08-06T15:30:41;0.80;;;0.43;;
12306;SDS011;6216;51.146;7.008;2022-08-06T15:33:12;0.60;;;0.40;;
12306;SDS011;6216;51.146;7.008;2022-08-06T15:35:42;0.40;;;0.30;;
12306;SDS011;6216;51.146;7.008;2022-08-06T15:38:23;0.40;;;0.40;;
12306;SDS011;6216;51.146;7.008;2022-08-06T15:40:52;1.70;;;0.60;;
12306;SDS011;6216;51.146;7.008;2022-08-06T15:43:20;0.40;;;0.33;;
12306;SDS011;6216;51.146;7.008;2022-08-06T15:45:52;0.47;;;0.30;;
12306;SDS011;6216;51.146;7.008;2022-08-06T15:48:24;2.63;;;0.40;;
12306;SDS011;6216;51.146;7.008;2022-08-06T15:50:54;0.90;;;0.30;;
12306;SDS011;6216;51.146;7.008;2022-08-06T15:53:44;0.80;;;0.57;;
12306;SDS011;6216;51.146;7.008;2022-08-06T15:56:23;0.70;;;0.47;;
12306;SDS011;6216;51.146;7.008;2022-08-06T15:59:12;0.60;;;0.40;;
12306;SDS011;6216;51.146;7.008;2022-08-06T16:01:47;1.13;;;0.60;;
12306;SDS011;6216;51.146;7.008;2022-08-06T16:04:27;2.73;;;0.60;;
12306;SDS011;6216;51.146;7.008;2022-08-06T16:07:01;1.03;;;0.50;;
12306;SDS011;6216;51.146;7.008;2022-08-06T16:09:31;0.63;;;0.40;;
12306;SDS011;6216;51.146;7.008;2022-08-06T16:12:19;0.47;;;0.47;;
12306;SDS011;6216;51.146;7.008;2022-08-06T16:14:48;1.57;;;0.70;;
12306;SDS011;6216;51.146;7.008;2022-08-06T16:17:25;0.83;;;0.40;;
12306;SDS011;6216;51.146;7.008;2022-08-06T16:20:14;1.33;;;0.60;;